Alex, Minnesota
Current Conditions -  °F | °C
As of 12:53 AM on Saturday 25 Oct 2014 (Local Time) from KAXN Reporting Station
Clear Clear  
Wind Chill: 56°   Ceiling: Unl
Heat Index: 56°   Visibility: 10mi
Dew Point: 34°   Wind: 14mph
Humidity: 44%   Direction: 310°NW
Pressure: 29.95"   Gusts: NA
Location:  45.8551°N, 95.4333°W
Report Text: KAXN 250553Z AUTO 31012KT 10SM CLR 13/01 A2995 RMK AO2 SLP145 T01330011 10183 20133 402220061 51014
Loading
Personal Weather Stations






























Interactive Weather Map
Tropical Storm Tracking
New forecast layout! Learn more

10-Day Weather Forecast

Advertisements
Track Severe Weather on mobile